Destin, FL

6:48 AM CST on December 22, 2014 (GMT -0600)
N4GXX | Change Station
CLOSE
Current Station
Personal Weather Station
Location: Crestview, FL
Elevation: 143 ft
Nearby Weather Stations

Elev 143 ft 30.72 °N, 86.58 °W | Updated 2 seconds ago

Rain
Rain
54.8 °F
Feels Like 54.8 °F
N
0.0
Wind Variable Wind from NNE
Gusts 3.0 mph

Today
High -- | Low -- °F
--% Chance of Precip.
Yesterday
High -- | Low -- °F
Precip. -- in
6:39 AM 4:50 PM
New Moon, 0% visible
Pressure 29.94 in
Visibility 9.0 miles
Clouds Scattered Clouds 300 ft
Overcast 9000 ft
Dew Point 54 °F
Humidity 97%
Rainfall 0.56 in
Snow Depth Not available.
UV 0 out of 12
Pollen 2.00 out of 12
Air Quality Not available.
Flu Activity Not available.
SPECI KDTS 221211Z AUTO 08007KT 9SM RA SCT003 OVC090 13/13 A2994 RMK AO2 P0001 T01330128 TSNO

More Conditions Fewer Conditions

Pressure 29.94 in
Visibility 9.0 miles
Clouds Scattered Clouds 300 ft
Overcast 9000 ft
Dew Point 54 °F
Humidity 97%
Rainfall 0.56 in
Snow Depth Not available.
UV 0 out of 12
Pollen 2.00 out of 12
Air Quality Not available.
Flu Activity Not available.
SPECI KDTS 221211Z AUTO 08007KT 9SM RA SCT003 OVC090 13/13 A2994 RMK AO2 P0001 T01330128 TSNO

More Conditions Fewer Conditions

10-Day Weather Forecast

Almanac

Astronomy

Dec. 22, 2014 Rise Set
Actual Time
Civil Twilight
Nautical Twilight
Astronomical Twilight
Moon
Length of Visible Light
Length of Day
Tomorrow will be .
, % of the Moon is Illuminated

Today's Extremes

State Highs State Lows

Community

WunderPhotos

Upload Photos

1,779,598 photos uploaded!

WunderBlogs® & News

Nearby

Air Quality

  Air Quality AQ Index Pollutant
Not available.

Snow Depth

Station Depth Elevation

Earthquake Activity

City Distance Mag. Time & Date
Minimum magnitude displayed is 2.5.

Coastal Water Temperatures

Place Temperature

Nearby Weather Stations